Wilpen, Minnesota
Current Conditions -  °F | °C
As of 2:53 AM on Thursday 18 Dec 2014 (Local Time) from KHIB Reporting Station
Overcast Overcast  
Wind Chill: 12°   Ceiling: 1200
Heat Index: 12°   Visibility: 10mi
Dew Point:   Wind: 3mph
Humidity: 77%   Direction: 100°E
Pressure: 30.3"   Gusts: NA
Location:  47.4158°N, 93.0053°W
Report Text: KHIB 180853Z AUTO 10003KT 10SM OVC012 M11/M14 A3030 RMK AO2 SLP291 T11111144 51004
Loading
Personal Weather Stations






























Interactive Weather Map New forecast layout! Learn more

10-Day Weather Forecast

Advertisements
Track Severe Weather on mobile